Accueil
METAR-TAF:

METAR-TAF

Aéroports :

Diepholz, Allemagne

latitude: 52-35N, longitude: 008-21E, altitude: 39 m

Observation

Le bulletin a été fait il y a 12 heures et 13 minutes, à 10:20 UTC
Vent 13 kt de ouest/sud-ouest
Température 6°C
Humidité 75%
Pression 1014 hPa
Visibilité 10 km ou plus
Quelques nuages à une hauteur de 1500 ft

METAR: ETND 281020Z 25013KT 9999 FEW015 06/02 Q1014 BLU+

Heure: 23:33 (22:33 UTC)


TAF: absent

Observations et prévisions météorologiques de plus de 4000 aéroports (messages METAR et TAF).

Les stations disponibles sont représentées par des disques jaunes et rouges sur la carte.

Passer la souris dessus pour voir le nom de la station.

Cliquer dessus pour voir les observations et prévisions météorologiques.

Pour changer de carte: cliquez sur les boutons verts avec une croix noire pour zoomer, sur le bouton vert avec un tiret pour effectuer un zoom arrière, ou sur les flèches vertes pour les cartes adjacentes.


METAR-TAF: